createdAt,value
2023-01-18T00:01:14.871Z,2.40
2023-01-18T00:03:42.429Z,2.40
2023-01-18T00:06:10.922Z,2.40
2023-01-18T00:08:40.191Z,2.40
2023-01-18T00:11:16.059Z,2.40
2023-01-18T00:13:43.765Z,2.30
2023-01-18T00:16:16.130Z,2.40
2023-01-18T00:18:43.810Z,2.40
2023-01-18T00:21:12.223Z,2.40
2023-01-18T00:23:39.723Z,2.30
2023-01-18T00:26:08.757Z,2.40
2023-01-18T00:28:36.414Z,2.40
2023-01-18T00:31:09.055Z,2.40
2023-01-18T00:33:35.940Z,2.40
2023-01-18T00:36:04.651Z,2.30
2023-01-18T00:38:32.113Z,2.30
2023-01-18T00:40:59.053Z,2.20
2023-01-18T00:43:41.256Z,2.20
2023-01-18T00:46:09.246Z,2.20
2023-01-18T00:48:37.116Z,2.30
2023-01-18T00:51:04.460Z,2.20
2023-01-18T00:53:31.793Z,2.20
2023-01-18T00:55:58.777Z,2.20
2023-01-18T00:58:25.738Z,2.20
2023-01-18T01:00:53.454Z,2.30
2023-01-18T01:03:21.483Z,2.30
2023-01-18T01:06:07.311Z,2.30
2023-01-18T01:08:34.653Z,2.30
2023-01-18T01:11:12.751Z,2.40
2023-01-18T01:13:58.234Z,2.30
2023-01-18T01:16:43.661Z,2.30
2023-01-18T01:19:29.540Z,2.30
2023-01-18T01:22:14.977Z,2.30
2023-01-18T01:25:00.752Z,2.30
2023-01-18T01:27:27.726Z,2.20
2023-01-18T01:29:54.699Z,2.10
2023-01-18T01:32:21.755Z,2.20
2023-01-18T01:34:48.710Z,2.20
2023-01-18T01:37:15.590Z,2.20
2023-01-18T01:39:42.540Z,2.20
2023-01-18T01:42:11.947Z,2.20
2023-01-18T01:44:42.145Z,2.30
2023-01-18T01:47:21.959Z,2.30
2023-01-18T01:49:52.692Z,2.20
2023-01-18T01:52:32.848Z,2.20
2023-01-18T01:55:14.635Z,2.30
2023-01-18T01:58:05.328Z,2.30
2023-01-18T02:00:32.965Z,2.30
2023-01-18T02:03:02.297Z,2.30
2023-01-18T02:05:31.171Z,2.30
2023-01-18T02:08:01.353Z,2.30
2023-01-18T02:10:29.707Z,2.30
2023-01-18T02:12:59.340Z,2.20
2023-01-18T02:15:36.729Z,2.10
2023-01-18T02:18:12.690Z,2.00
2023-01-18T02:21:06.446Z,1.90
2023-01-18T02:23:48.915Z,1.90
2023-01-18T02:26:50.205Z,1.80
2023-01-18T02:29:41.097Z,1.90
2023-01-18T02:32:21.605Z,1.90
2023-01-18T02:34:51.840Z,2.00
2023-01-18T02:37:34.583Z,2.00
2023-01-18T02:40:09.732Z,1.90
2023-01-18T02:42:57.697Z,1.90
2023-01-18T02:45:58.359Z,1.80
2023-01-18T02:48:30.592Z,1.80
2023-01-18T02:50:57.517Z,1.80
2023-01-18T02:53:24.447Z,1.90
2023-01-18T02:56:14.628Z,1.90
2023-01-18T02:58:47.079Z,1.90
2023-01-18T03:01:27.919Z,2.00
2023-01-18T03:04:03.624Z,2.00
2023-01-18T03:06:31.166Z,2.00
2023-01-18T03:09:00.121Z,1.90
2023-01-18T03:11:38.719Z,1.90
2023-01-18T03:14:36.971Z,1.90
2023-01-18T03:17:34.104Z,2.00
2023-01-18T03:20:10.200Z,2.00
2023-01-18T03:23:18.085Z,2.00
2023-01-18T03:25:57.108Z,2.00
2023-01-18T03:28:55.809Z,1.90
2023-01-18T03:32:12.907Z,1.90
2023-01-18T03:35:08.140Z,1.90
2023-01-18T03:37:42.255Z,1.90
2023-01-18T03:40:18.406Z,1.90
2023-01-18T03:42:54.071Z,1.90
2023-01-18T03:45:34.575Z,1.90
2023-01-18T03:48:02.738Z,2.00
2023-01-18T03:50:56.230Z,2.00
2023-01-18T03:53:26.283Z,2.00
2023-01-18T03:55:59.331Z,2.00
2023-01-18T03:58:35.276Z,2.00
2023-01-18T04:01:04.285Z,2.00
2023-01-18T04:03:32.964Z,2.00
2023-01-18T04:06:05.013Z,2.00
2023-01-18T04:08:32.092Z,2.00
2023-01-18T04:10:59.140Z,2.00
2023-01-18T04:13:26.110Z,2.00
2023-01-18T04:15:53.102Z,2.00
2023-01-18T04:18:20.195Z,1.90
2023-01-18T04:20:47.228Z,2.00
2023-01-18T04:23:14.131Z,1.90
2023-01-18T04:25:41.064Z,1.90
2023-01-18T04:28:08.030Z,1.90
2023-01-18T04:30:34.956Z,2.00
2023-01-18T04:33:02.150Z,2.00
2023-01-18T04:35:29.156Z,2.00
2023-01-18T04:37:56.048Z,1.90
2023-01-18T04:40:22.979Z,1.90
2023-01-18T04:42:54.231Z,1.90
2023-01-18T04:45:21.670Z,1.80
2023-01-18T04:47:48.752Z,1.80
2023-01-18T04:50:16.028Z,1.90
2023-01-18T04:52:42.996Z,1.80
2023-01-18T04:55:11.746Z,1.80
2023-01-18T04:57:38.736Z,1.80
2023-01-18T05:00:08.754Z,1.80
2023-01-18T05:02:35.978Z,1.80
2023-01-18T05:05:05.154Z,1.70
2023-01-18T05:07:33.964Z,1.70
2023-01-18T05:10:04.586Z,1.60
2023-01-18T05:12:31.581Z,1.50
2023-01-18T05:14:58.535Z,1.50
2023-01-18T05:17:27.574Z,1.50
2023-01-18T05:19:55.057Z,1.50
2023-01-18T05:22:23.011Z,1.50
2023-01-18T05:24:50.145Z,1.50
2023-01-18T05:27:17.151Z,1.50
2023-01-18T05:29:44.211Z,1.50
2023-01-18T05:32:11.497Z,1.60
2023-01-18T05:34:38.426Z,1.50
2023-01-18T05:37:05.345Z,1.60
2023-01-18T05:39:32.319Z,1.60
2023-01-18T05:42:00.310Z,1.60
2023-01-18T05:44:27.609Z,1.60
2023-01-18T05:46:54.577Z,1.60
2023-01-18T05:49:21.523Z,1.60
2023-01-18T05:51:48.498Z,1.60
2023-01-18T05:54:15.768Z,1.60
2023-01-18T05:56:42.991Z,1.60
2023-01-18T05:59:10.164Z,1.60
2023-01-18T06:01:37.488Z,1.50
2023-01-18T06:04:04.584Z,1.50
2023-01-18T06:06:33.473Z,1.50
2023-01-18T06:09:01.719Z,1.40
2023-01-18T06:11:28.668Z,1.40
2023-01-18T06:13:55.652Z,1.40
2023-01-18T06:16:22.641Z,1.40
2023-01-18T06:18:49.661Z,1.40
2023-01-18T06:21:18.044Z,1.40
2023-01-18T06:23:45.315Z,1.40
2023-01-18T06:26:12.259Z,1.40
2023-01-18T06:28:39.169Z,1.40
2023-01-18T06:31:08.382Z,1.40
2023-01-18T06:33:35.500Z,1.40
2023-01-18T06:36:02.757Z,1.40
2023-01-18T06:38:30.109Z,1.30
2023-01-18T06:40:57.534Z,1.30
2023-01-18T06:43:24.717Z,1.30
2023-01-18T06:45:58.357Z,1.40
2023-01-18T06:48:26.736Z,1.40
2023-01-18T06:50:57.261Z,1.30
2023-01-18T06:53:24.752Z,1.30
2023-01-18T06:55:59.226Z,1.40
2023-01-18T06:58:27.178Z,1.40
2023-01-18T07:00:59.642Z,1.40
2023-01-18T07:03:28.215Z,1.40
2023-01-18T07:05:56.139Z,1.40
2023-01-18T07:08:23.761Z,1.40
2023-01-18T07:10:52.850Z,1.30
2023-01-18T07:13:20.579Z,1.30
2023-01-18T07:16:00.767Z,1.40
2023-01-18T07:18:30.329Z,1.40
2023-01-18T07:20:58.161Z,1.40
2023-01-18T07:23:25.790Z,1.40
2023-01-18T07:26:07.849Z,1.50
2023-01-18T07:28:36.391Z,1.60
2023-01-18T07:31:06.372Z,1.60
2023-01-18T07:33:33.476Z,1.70
2023-01-18T07:36:00.571Z,1.70
2023-01-18T07:38:27.889Z,1.70
2023-01-18T07:41:02.471Z,1.80
2023-01-18T07:43:31.433Z,1.80
2023-01-18T07:45:59.269Z,1.80
2023-01-18T07:48:27.832Z,1.80
2023-01-18T07:50:56.638Z,1.80
2023-01-18T07:53:24.881Z,1.80
2023-01-18T07:55:52.808Z,1.80
2023-01-18T07:58:21.126Z,1.70
2023-01-18T08:00:48.302Z,1.70
2023-01-18T08:03:17.901Z,1.70
2023-01-18T08:05:45.896Z,1.70
2023-01-18T08:08:15.199Z,1.70
2023-01-18T08:10:43.681Z,1.70
2023-01-18T08:13:11.564Z,1.60
2023-01-18T08:15:40.393Z,1.70
2023-01-18T08:18:09.055Z,1.50
2023-01-18T08:20:36.386Z,1.60
2023-01-18T08:23:04.060Z,1.60
2023-01-18T08:25:33.564Z,1.60
2023-01-18T08:28:02.555Z,1.70
2023-01-18T08:30:39.410Z,1.70
2023-01-18T08:33:07.889Z,1.70
2023-01-18T08:35:41.185Z,1.70
2023-01-18T08:38:08.192Z,1.70
2023-01-18T08:40:35.227Z,1.70
2023-01-18T08:43:03.621Z,1.60
2023-01-18T08:45:31.113Z,1.50
2023-01-18T08:48:05.340Z,1.60
2023-01-18T08:50:34.157Z,1.60
2023-01-18T08:53:02.787Z,1.70
2023-01-18T08:55:30.492Z,1.70
2023-01-18T08:57:58.687Z,1.80
2023-01-18T09:00:33.189Z,1.80
2023-01-18T09:03:02.965Z,1.80
2023-01-18T09:05:30.227Z,1.90
2023-01-18T09:07:58.159Z,1.90
2023-01-18T09:10:25.119Z,1.90
2023-01-18T09:12:53.680Z,1.90
2023-01-18T09:15:21.151Z,1.90
2023-01-18T09:17:48.105Z,1.90
2023-01-18T09:20:17.728Z,1.90
2023-01-18T09:22:47.975Z,1.90
2023-01-18T09:25:18.120Z,2.00
2023-01-18T09:27:46.787Z,2.00
2023-01-18T09:30:16.155Z,2.00
2023-01-18T09:32:43.267Z,1.90
2023-01-18T09:35:10.482Z,1.90
2023-01-18T09:37:37.627Z,1.80
2023-01-18T09:40:05.037Z,1.90
2023-01-18T09:42:41.044Z,2.00
2023-01-18T09:45:32.406Z,2.00
2023-01-18T09:48:07.210Z,2.10
2023-01-18T09:50:42.872Z,2.10
2023-01-18T09:53:38.951Z,2.10
2023-01-18T09:56:18.607Z,2.10
2023-01-18T09:59:05.808Z,2.10
2023-01-18T10:01:36.287Z,2.10
2023-01-18T10:04:12.902Z,2.10
2023-01-18T10:06:52.850Z,2.20
2023-01-18T10:09:30.267Z,2.10
2023-01-18T10:12:07.660Z,2.20
2023-01-18T10:14:40.421Z,2.20
2023-01-18T10:17:14.730Z,2.20
2023-01-18T10:19:41.937Z,2.20
2023-01-18T10:22:22.625Z,2.30
2023-01-18T10:25:03.668Z,2.20
2023-01-18T10:27:36.007Z,2.20
2023-01-18T10:30:20.831Z,2.20
2023-01-18T10:32:58.537Z,2.20
2023-01-18T10:35:25.665Z,2.30
2023-01-18T10:37:55.807Z,2.30
2023-01-18T10:40:23.525Z,2.30
2023-01-18T10:42:53.848Z,2.40
2023-01-18T10:45:25.610Z,2.40
2023-01-18T10:47:54.922Z,2.40
2023-01-18T10:50:53.119Z,2.40
2023-01-18T10:53:27.429Z,2.40
2023-01-18T10:56:12.826Z,2.50
2023-01-18T10:58:52.353Z,2.40
2023-01-18T11:01:31.952Z,2.20
2023-01-18T11:04:08.300Z,2.00
2023-01-18T11:06:57.427Z,2.00
2023-01-18T11:09:54.624Z,1.90
2023-01-18T11:12:38.648Z,1.80
2023-01-18T11:15:15.050Z,1.70
2023-01-18T11:17:58.964Z,1.70
2023-01-18T11:20:34.501Z,1.80
2023-01-18T11:23:10.757Z,1.80
2023-01-18T11:25:49.122Z,1.90
2023-01-18T11:28:26.412Z,1.90
2023-01-18T11:31:22.512Z,1.90
2023-01-18T11:33:57.435Z,2.00
2023-01-18T11:36:42.793Z,2.00
2023-01-18T11:39:24.924Z,2.00
2023-01-18T11:42:09.837Z,2.00
2023-01-18T11:44:40.168Z,2.10
2023-01-18T11:47:16.721Z,2.10
2023-01-18T11:49:53.559Z,2.10
2023-01-18T11:52:29.653Z,2.20
2023-01-18T11:55:03.315Z,2.30
2023-01-18T11:57:31.068Z,2.30
2023-01-18T11:59:58.692Z,2.40
2023-01-18T12:02:56.451Z,2.50
2023-01-18T12:05:37.208Z,2.60
2023-01-18T12:08:31.898Z,2.70
2023-01-18T12:11:20.832Z,3.00
2023-01-18T12:14:05.290Z,3.20
2023-01-18T12:17:08.429Z,3.70
2023-01-18T12:19:38.177Z,4.30
2023-01-18T12:22:23.690Z,4.70
2023-01-18T12:25:35.217Z,4.90
2023-01-18T12:28:21.637Z,5.30
2023-01-18T12:31:36.394Z,5.50
2023-01-18T12:34:16.429Z,5.90
2023-01-18T12:36:45.394Z,5.90
2023-01-18T12:39:37.049Z,5.80
2023-01-18T12:42:21.682Z,5.80
2023-01-18T12:45:07.894Z,5.70
2023-01-18T12:47:39.453Z,5.60
2023-01-18T12:50:24.826Z,5.40
2023-01-18T12:53:00.647Z,5.00
2023-01-18T12:55:31.734Z,4.80
2023-01-18T12:58:01.696Z,4.60
2023-01-18T13:00:36.472Z,4.60
2023-01-18T13:03:13.201Z,4.60
2023-01-18T13:05:52.661Z,4.30
2023-01-18T13:08:39.392Z,4.40
2023-01-18T13:11:08.143Z,4.30
2023-01-18T13:13:36.316Z,4.50
2023-01-18T13:16:26.359Z,4.80
2023-01-18T13:19:00.253Z,5.20
2023-01-18T13:21:39.380Z,5.50
2023-01-18T13:24:26.387Z,5.70
2023-01-18T13:27:05.236Z,5.80
2023-01-18T13:29:32.214Z,5.80
2023-01-18T13:31:59.696Z,5.00
2023-01-18T13:34:44.430Z,3.90
2023-01-18T13:37:41.909Z,3.10
2023-01-18T13:40:31.500Z,2.40
2023-01-18T13:42:58.662Z,2.60
2023-01-18T13:45:30.077Z,2.70
2023-01-18T13:48:07.723Z,2.70
2023-01-18T13:50:34.806Z,3.00
2023-01-18T13:53:13.807Z,2.80
2023-01-18T13:55:59.911Z,2.70
2023-01-18T13:58:34.122Z,2.70
2023-01-18T14:01:03.912Z,2.80
2023-01-18T14:03:38.086Z,2.80
2023-01-18T14:06:15.162Z,3.00
2023-01-18T14:08:54.333Z,2.70
2023-01-18T14:11:32.164Z,2.60
2023-01-18T14:14:00.226Z,2.50
2023-01-18T14:16:36.348Z,2.50
2023-01-18T14:19:23.555Z,2.60
2023-01-18T14:22:07.668Z,2.60
2023-01-18T14:25:18.109Z,2.60
2023-01-18T14:28:01.702Z,2.50
2023-01-18T14:30:36.596Z,2.50
2023-01-18T14:33:23.291Z,2.50
2023-01-18T14:35:55.456Z,2.40
2023-01-18T14:38:22.422Z,2.40
2023-01-18T14:40:55.774Z,2.30
2023-01-18T14:43:30.801Z,2.20
2023-01-18T14:46:03.074Z,2.20
2023-01-18T14:48:34.652Z,2.20
2023-01-18T14:51:02.614Z,2.20
2023-01-18T14:53:58.204Z,2.20
2023-01-18T14:56:28.356Z,2.10
2023-01-18T14:59:18.011Z,2.10
2023-01-18T15:01:56.216Z,2.00
2023-01-18T15:04:29.347Z,2.10
2023-01-18T15:07:10.260Z,2.10
2023-01-18T15:09:39.625Z,2.00
2023-01-18T15:12:09.998Z,2.00
2023-01-18T15:14:42.287Z,2.00
2023-01-18T15:17:21.462Z,2.00
2023-01-18T15:20:02.305Z,1.90
2023-01-18T15:22:32.468Z,1.90
2023-01-18T15:25:00.487Z,1.80
2023-01-18T15:27:31.918Z,1.80
2023-01-18T15:30:00.967Z,1.80
2023-01-18T15:32:31.655Z,1.80
2023-01-18T15:35:00.423Z,1.80
2023-01-18T15:37:33.739Z,1.90
2023-01-18T15:40:02.391Z,1.90
2023-01-18T15:42:36.994Z,1.80
2023-01-18T15:45:05.319Z,1.80
2023-01-18T15:47:36.907Z,1.70
2023-01-18T15:50:15.205Z,1.70
2023-01-18T15:52:45.412Z,1.70
2023-01-18T15:55:38.706Z,1.70
2023-01-18T15:58:18.013Z,1.80
2023-01-18T16:00:55.047Z,1.80
2023-01-18T16:03:25.656Z,1.80
2023-01-18T16:06:07.068Z,1.80
2023-01-18T16:08:34.897Z,1.70
2023-01-18T16:11:02.225Z,1.60
2023-01-18T16:13:40.362Z,1.60
2023-01-18T16:16:15.447Z,1.50
2023-01-18T16:18:49.687Z,1.40
2023-01-18T16:21:43.271Z,1.40
2023-01-18T16:24:33.048Z,1.20
2023-01-18T16:27:11.930Z,1.30
2023-01-18T16:29:48.106Z,1.20
2023-01-18T16:32:30.074Z,1.20
2023-01-18T16:35:03.675Z,1.10
2023-01-18T16:37:30.840Z,1.10
2023-01-18T16:39:57.870Z,1.10
2023-01-18T16:42:36.925Z,1.00
2023-01-18T16:45:05.251Z,1.00
2023-01-18T16:47:32.490Z,1.00
2023-01-18T16:49:59.544Z,1.00
2023-01-18T16:52:27.396Z,1.00
2023-01-18T16:54:54.562Z,1.00
2023-01-18T16:57:23.757Z,0.90
2023-01-18T16:59:51.117Z,0.90
2023-01-18T17:02:18.283Z,0.90
2023-01-18T17:04:46.623Z,0.80
2023-01-18T17:07:14.247Z,0.80
2023-01-18T17:09:48.363Z,0.80
2023-01-18T17:12:16.328Z,0.70
2023-01-18T17:14:43.614Z,0.70
2023-01-18T17:17:11.529Z,0.60
2023-01-18T17:19:38.513Z,0.60
2023-01-18T17:22:07.311Z,0.60
2023-01-18T17:24:34.306Z,0.60
2023-01-18T17:27:01.435Z,0.60
2023-01-18T17:29:28.932Z,0.50
2023-01-18T17:31:55.904Z,0.50
2023-01-18T17:34:28.187Z,0.40
2023-01-18T17:36:59.897Z,0.40
2023-01-18T17:39:42.479Z,0.40
2023-01-18T17:42:22.358Z,0.40
2023-01-18T17:44:50.498Z,0.30
2023-01-18T17:47:17.533Z,0.30
2023-01-18T17:49:44.461Z,0.30
2023-01-18T17:52:11.979Z,0.20
2023-01-18T17:54:38.957Z,0.20
2023-01-18T17:57:05.896Z,0.20
2023-01-18T17:59:32.826Z,0.20
2023-01-18T18:01:59.786Z,0.10
2023-01-18T18:04:26.750Z,0.10
2023-01-18T18:06:58.444Z,0.10
2023-01-18T18:09:25.837Z,0.10
2023-01-18T18:11:53.089Z,0.00
2023-01-18T18:14:20.107Z,0.00
2023-01-18T18:16:47.102Z,0.00
2023-01-18T18:19:18.092Z,0.00
2023-01-18T18:21:48.392Z,-0.10
2023-01-18T18:24:15.296Z,-0.10
2023-01-18T18:26:42.312Z,-0.10
2023-01-18T18:29:09.898Z,-0.10
2023-01-18T18:31:38.946Z,-0.20
2023-01-18T18:34:06.457Z,-0.10
2023-01-18T18:36:33.379Z,-0.20
2023-01-18T18:39:06.866Z,-0.20
2023-01-18T18:41:33.901Z,-0.20
2023-01-18T18:44:00.855Z,-0.30
2023-01-18T18:46:27.924Z,-0.30
2023-01-18T18:48:55.077Z,-0.30
2023-01-18T18:51:22.650Z,-0.30
2023-01-18T18:53:49.709Z,-0.30
2023-01-18T18:56:16.876Z,-0.30
2023-01-18T18:58:44.115Z,-0.30
2023-01-18T19:01:26.444Z,-0.40
2023-01-18T19:03:54.060Z,-0.30
2023-01-18T19:06:22.318Z,-0.30
2023-01-18T19:08:49.874Z,-0.30
2023-01-18T19:11:17.447Z,-0.30
2023-01-18T19:13:45.380Z,-0.40
2023-01-18T19:16:12.821Z,-0.40
2023-01-18T19:18:39.792Z,-0.40
2023-01-18T19:21:07.705Z,-0.50
2023-01-18T19:23:34.801Z,-0.50
2023-01-18T19:26:01.873Z,-0.50
2023-01-18T19:28:29.402Z,-0.50
2023-01-18T19:31:02.713Z,-0.50
2023-01-18T19:33:29.788Z,-0.50
2023-01-18T19:35:57.344Z,-0.60
2023-01-18T19:38:24.808Z,-0.60
2023-01-18T19:40:51.854Z,-0.60
2023-01-18T19:43:18.820Z,-0.60
2023-01-18T19:45:45.804Z,-0.50
2023-01-18T19:48:12.779Z,-0.40
2023-01-18T19:50:39.724Z,-0.40
2023-01-18T19:53:06.700Z,-0.40
2023-01-18T19:55:36.482Z,-0.40
2023-01-18T19:58:03.436Z,-0.50
2023-01-18T20:00:30.684Z,-0.50
2023-01-18T20:02:59.624Z,-0.60
2023-01-18T20:05:27.462Z,-0.60
2023-01-18T20:07:54.503Z,-0.70
2023-01-18T20:10:21.458Z,-0.70
2023-01-18T20:12:49.859Z,-0.70
2023-01-18T20:15:18.687Z,-0.60
2023-01-18T20:17:45.655Z,-0.60
2023-01-18T20:20:16.174Z,-0.60
2023-01-18T20:22:48.258Z,-0.50
2023-01-18T20:25:15.229Z,-0.40
2023-01-18T20:27:42.192Z,-0.40
2023-01-18T20:30:09.910Z,-0.30
2023-01-18T20:32:36.848Z,-0.30
2023-01-18T20:35:03.914Z,-0.30
2023-01-18T20:37:30.927Z,-0.30
2023-01-18T20:39:57.834Z,-0.30
2023-01-18T20:42:24.761Z,-0.30
2023-01-18T20:44:53.791Z,-0.30
2023-01-18T20:47:20.840Z,-0.30
2023-01-18T20:49:47.797Z,-0.30
2023-01-18T20:52:14.844Z,-0.30
2023-01-18T20:54:41.779Z,-0.30
2023-01-18T20:57:09.533Z,-0.30
2023-01-18T20:59:36.537Z,-0.30
2023-01-18T21:02:04.136Z,-0.30
2023-01-18T21:04:31.141Z,-0.40
2023-01-18T21:06:58.244Z,-0.40
2023-01-18T21:09:25.850Z,-0.30
2023-01-18T21:11:52.860Z,-0.30
2023-01-18T21:14:19.922Z,-0.20
2023-01-18T21:16:47.012Z,-0.10
2023-01-18T21:19:14.316Z,-0.10
2023-01-18T21:21:41.302Z,-0.10
2023-01-18T21:24:08.296Z,-0.10
2023-01-18T21:26:36.181Z,-0.10
2023-01-18T21:29:04.092Z,-0.20
2023-01-18T21:31:31.124Z,-0.10
2023-01-18T21:33:58.073Z,-0.20
2023-01-18T21:36:25.119Z,-0.10
2023-01-18T21:38:52.265Z,-0.20
2023-01-18T21:41:37.719Z,-0.10
2023-01-18T21:44:23.564Z,-0.20
2023-01-18T21:46:51.935Z,-0.20
2023-01-18T21:52:44.531Z,-0.20
2023-01-18T21:55:11.921Z,-0.20
2023-01-18T21:57:38.900Z,-0.30
2023-01-18T22:00:06.919Z,-0.40
2023-01-18T22:02:34.282Z,-0.50
2023-01-18T22:05:03.367Z,-0.50
2023-01-18T22:07:32.716Z,-0.60
2023-01-18T22:10:05.189Z,-0.60
2023-01-18T22:12:35.576Z,-0.70
2023-01-18T22:15:06.771Z,-0.70
2023-01-18T22:17:33.785Z,-0.60
2023-01-18T22:20:01.922Z,-0.50
2023-01-18T22:22:29.097Z,-0.40
2023-01-18T22:24:57.098Z,-0.40
2023-01-18T22:27:24.068Z,-0.50
2023-01-18T22:29:51.273Z,-0.40
2023-01-18T22:32:18.224Z,-0.40
2023-01-18T22:34:45.199Z,-0.50
2023-01-18T22:37:12.154Z,-0.50
2023-01-18T22:39:39.152Z,-0.50
2023-01-18T22:42:06.337Z,-0.50
2023-01-18T22:44:33.310Z,-0.60
2023-01-18T22:47:00.211Z,-0.60
2023-01-18T22:49:27.177Z,-0.60
2023-01-18T22:51:54.137Z,-0.60
2023-01-18T22:54:22.962Z,-0.60
2023-01-18T22:56:50.077Z,-0.60
2023-01-18T22:59:17.152Z,-0.60
2023-01-18T23:01:44.073Z,-0.50
2023-01-18T23:04:11.410Z,-0.60
2023-01-18T23:06:49.036Z,-0.50
2023-01-18T23:09:17.868Z,-0.60
2023-01-18T23:11:45.755Z,-0.60
2023-01-18T23:14:31.198Z,-0.60
2023-01-18T23:17:16.968Z,-0.60
2023-01-18T23:19:43.973Z,-0.70
2023-01-18T23:22:11.320Z,-0.70
2023-01-18T23:24:39.060Z,-0.80
2023-01-18T23:27:07.946Z,-0.80
2023-01-18T23:29:35.101Z,-0.80
2023-01-18T23:32:02.198Z,-0.90
2023-01-18T23:34:29.132Z,-0.80
2023-01-18T23:36:56.079Z,-0.80
2023-01-18T23:39:41.593Z,-0.90
2023-01-18T23:42:27.458Z,-0.90
2023-01-18T23:45:13.239Z,-1.00
2023-01-18T23:47:59.016Z,-0.90
2023-01-18T23:50:44.704Z,-1.00
2023-01-18T23:53:31.720Z,-1.10
2023-01-18T23:55:59.142Z,-1.10
2023-01-18T23:58:26.202Z,-1.10
